Terminal Aerodrome Forecast
Issued by NWS

Home | Current Version | Previous Version | Text Only | Print | Product List | Glossary On
Versions: 1 2 3 4 5 6 7 8 9 10 11 12 13 14 15 16 17 18 19 20 21 22 23 24 25 26
000
FTUS41 KPHI 231300 AAA
TAFPNE
TAF AMD
KPNE 231312Z 2313/2412 06007KT P6SM -SHRA SCT025 OVC100
     FM231600 09008KT P6SM -SHRA SCT025 BKN050
     FM232300 10006KT P6SM SCT050 BKN120
     FM240500 03004KT P6SM SCT050 SCT120=

USA.gov is the U.S. government's official web portal to all federal, state and local government web resources and services.